PWSweather.com
Personal Weather Stations
Station Observations
KB2SBX
Sugarloaf, Sugarloaf, PA 18249

SugarloafSugarloaf, PA 18249

Lat: 41.0126685, Lon: -76.1082041

Elevation: 1030

Station Type: WS-2080

http://sugarloafpaweather.webng.com/weather.shtml

High Low Average
Temperature 40.1°F4.5°C 29.8°F-1.2°C 34.1°F1.2°C
Dew Point 23.0°F-5.0°C 15.1°F-9.4°C 19.8°F-6.8°C
Winds 4.2 mph 6.8 kmh Calm Calm 2.0 mph SE3.2 kmh SE
Wind Gusts 11.4 mph18.3 kmh 0.7 mph1.1 kmh 7.0 mph11.3 kmh
Humidity 69% 42% 56%
Pressure 30.04 in1017.3 mb 29.91 in1012.9 mb -
Precipitation 0.01 in0.3 mm - -
Hour Temp Dew Point Humidity Winds Wind Gusts Pressure Precip Precip Rate Daily Precip Total
12:00 AM 32.4°F0.2°C 21.9°F-5.6°C 65% 1.3 mph SW2.1 kmh SW 4.5 mph7.2 kmh 30.00 in1015.9 mb 0.00 in0.0 mm 0.00 in/hr0.0 mm/hr 0.01 in0.3 mm
12:15 AM 32.4°F0.2°C 21.9°F-5.6°C 65% 1.4 mph WSW2.3 kmh WSW 4.5 mph7.2 kmh 30.00 in1015.9 mb 0.00 in0.0 mm 0.00 in/hr0.0 mm/hr 0.00 in0.0 mm
12:30 AM 32.4°F0.2°C 21.9°F-5.6°C 65% 1.0 mph S1.6 kmh S 3.8 mph6.1 kmh 30.01 in1016.3 mb 0.00 in0.0 mm 0.00 in/hr0.0 mm/hr 0.00 in0.0 mm
12:45 AM 32.2°F0.1°C 22.5°F-5.3°C 67% Calm Calm 0.7 mph1.1 kmh 30.02 in1016.6 mb 0.00 in0.0 mm 0.00 in/hr0.0 mm/hr 0.00 in0.0 mm
01:00 AM 32.0°F0.0°C 23.0°F-5.0°C 69% 0.1 mph NW0.2 kmh NW 1.6 mph2.6 kmh 30.02 in1016.6 mb 0.00 in0.0 mm 0.00 in/hr0.0 mm/hr 0.00 in0.0 mm
01:15 AM 32.0°F0.0°C 22.7°F-5.2°C 68% 0.7 mph NW1.1 kmh NW 6.0 mph9.7 kmh 30.02 in1016.6 mb 0.00 in0.0 mm 0.00 in/hr0.0 mm/hr 0.00 in0.0 mm
01:30 AM 32.5°F0.3°C 22.1°F-5.5°C 65% 0.8 mph N1.3 kmh N 3.1 mph5.0 kmh 30.03 in1016.9 mb 0.00 in0.0 mm 0.00 in/hr0.0 mm/hr 0.00 in0.0 mm
01:45 AM 32.5°F0.3°C 21.7°F-5.7°C 64% 1.7 mph WSW2.7 kmh WSW 6.9 mph11.1 kmh 30.03 in1016.9 mb 0.00 in0.0 mm 0.00 in/hr0.0 mm/hr 0.00 in0.0 mm
02:00 AM 32.4°F0.2°C 21.6°F-5.8°C 64% 1.5 mph WNW2.4 kmh WNW 4.5 mph7.2 kmh 30.03 in1016.9 mb 0.00 in0.0 mm 0.00 in/hr0.0 mm/hr 0.00 in0.0 mm
02:15 AM 32.2°F0.1°C 19.9°F-6.7°C 60% 2.7 mph ENE4.3 kmh ENE 10.7 mph17.2 kmh 30.02 in1016.6 mb 0.00 in0.0 mm 0.00 in/hr0.0 mm/hr 0.00 in0.0 mm
02:30 AM 32.0°F0.0°C 19.7°F-6.8°C 60% 2.7 mph NW4.3 kmh NW 7.6 mph12.2 kmh 30.02 in1016.6 mb 0.00 in0.0 mm 0.00 in/hr0.0 mm/hr 0.00 in0.0 mm
02:45 AM 31.8°F-0.1°C 19.9°F-6.7°C 61% 3.2 mph NNW5.1 kmh NNW 9.8 mph15.8 kmh 30.02 in1016.6 mb 0.00 in0.0 mm 0.00 in/hr0.0 mm/hr 0.00 in0.0 mm
03:00 AM 31.5°F-0.3°C 19.6°F-6.9°C 61% 1.7 mph NW2.7 kmh NW 8.3 mph13.4 kmh 30.01 in1016.3 mb 0.00 in0.0 mm 0.00 in/hr0.0 mm/hr 0.00 in0.0 mm
03:15 AM 30.6°F-0.8°C 19.1°F-7.2°C 62% 0.5 mph W0.8 kmh W 3.8 mph6.1 kmh 30.02 in1016.6 mb 0.00 in0.0 mm 0.00 in/hr0.0 mm/hr 0.00 in0.0 mm
03:30 AM 30.2°F-1.0°C 19.9°F-6.7°C 65% 2.0 mph N3.2 kmh N 6.9 mph11.1 kmh 30.02 in1016.6 mb 0.00 in0.0 mm 0.00 in/hr0.0 mm/hr 0.00 in0.0 mm
03:45 AM 30.4°F-0.9°C 19.7°F-6.8°C 64% 1.2 mph N1.9 kmh N 6.0 mph9.7 kmh 30.03 in1016.9 mb 0.00 in0.0 mm 0.00 in/hr0.0 mm/hr 0.00 in0.0 mm
04:00 AM 30.9°F-0.6°C 20.2°F-6.6°C 64% 2.5 mph S4.0 kmh S 9.2 mph14.8 kmh 30.03 in1016.9 mb 0.00 in0.0 mm 0.00 in/hr0.0 mm/hr 0.00 in0.0 mm
04:15 AM 30.9°F-0.6°C 19.8°F-6.8°C 63% 2.0 mph NW3.2 kmh NW 4.5 mph7.2 kmh 30.04 in1017.3 mb 0.00 in0.0 mm 0.00 in/hr0.0 mm/hr 0.00 in0.0 mm
04:30 AM 30.2°F-1.0°C 19.2°F-7.1°C 63% 0.5 mph NW0.8 kmh NW 3.8 mph6.1 kmh 30.04 in1017.3 mb 0.00 in0.0 mm 0.00 in/hr0.0 mm/hr 0.00 in0.0 mm
04:45 AM 30.4°F-0.9°C 19.7°F-6.8°C 64% 0.5 mph NW0.8 kmh NW 3.1 mph5.0 kmh 30.03 in1016.9 mb 0.00 in0.0 mm 0.00 in/hr0.0 mm/hr 0.00 in0.0 mm
05:00 AM 29.8°F-1.2°C 19.9°F-6.7°C 66% 0.7 mph SW1.1 kmh SW 3.8 mph6.1 kmh 30.03 in1016.9 mb 0.00 in0.0 mm 0.00 in/hr0.0 mm/hr 0.00 in0.0 mm
05:15 AM 29.8°F-1.2°C 20.3°F-6.5°C 67% 1.6 mph SE2.6 kmh SE 5.4 mph8.7 kmh 30.03 in1016.9 mb 0.00 in0.0 mm 0.00 in/hr0.0 mm/hr 0.00 in0.0 mm
05:30 AM 30.2°F-1.0°C 20.6°F-6.3°C 67% 1.7 mph NW2.7 kmh NW 7.6 mph12.2 kmh 30.02 in1016.6 mb 0.00 in0.0 mm 0.00 in/hr0.0 mm/hr 0.00 in0.0 mm
05:45 AM 30.6°F-0.8°C 20.6°F-6.3°C 66% 1.4 mph NW2.3 kmh NW 3.8 mph6.1 kmh 30.02 in1016.6 mb 0.00 in0.0 mm 0.00 in/hr0.0 mm/hr 0.00 in0.0 mm
06:00 AM 30.9°F-0.6°C 20.2°F-6.6°C 64% 2.0 mph N3.2 kmh N 5.4 mph8.7 kmh 30.01 in1016.3 mb 0.00 in0.0 mm 0.00 in/hr0.0 mm/hr 0.00 in0.0 mm
06:15 AM 31.1°F-0.5°C 20.0°F-6.7°C 63% 2.2 mph NE3.5 kmh NE 9.2 mph14.8 kmh 30.01 in1016.3 mb 0.00 in0.0 mm 0.00 in/hr0.0 mm/hr 0.00 in0.0 mm
06:30 AM 30.9°F-0.6°C 20.2°F-6.6°C 64% 1.1 mph ESE1.8 kmh ESE 5.4 mph8.7 kmh 30.01 in1016.3 mb 0.00 in0.0 mm 0.00 in/hr0.0 mm/hr 0.00 in0.0 mm
06:45 AM 30.9°F-0.6°C 20.2°F-6.6°C 64% 1.1 mph ENE1.8 kmh ENE 4.5 mph7.2 kmh 30.00 in1015.9 mb 0.00 in0.0 mm 0.00 in/hr0.0 mm/hr 0.00 in0.0 mm
07:00 AM 30.7°F-0.7°C 20.0°F-6.7°C 64% 1.1 mph SE1.8 kmh SE 6.9 mph11.1 kmh 30.00 in1015.9 mb 0.00 in0.0 mm 0.00 in/hr0.0 mm/hr 0.00 in0.0 mm
07:15 AM 30.6°F-0.8°C 20.2°F-6.6°C 65% 2.0 mph SE3.2 kmh SE 5.4 mph8.7 kmh 30.01 in1016.3 mb 0.00 in0.0 mm 0.00 in/hr0.0 mm/hr 0.00 in0.0 mm
07:30 AM 30.6°F-0.8°C 20.6°F-6.3°C 66% 0.9 mph ENE1.4 kmh ENE 4.5 mph7.2 kmh 30.01 in1016.3 mb 0.00 in0.0 mm 0.00 in/hr0.0 mm/hr 0.00 in0.0 mm
07:45 AM 30.7°F-0.7°C 20.8°F-6.2°C 66% 1.1 mph SE1.8 kmh SE 3.8 mph6.1 kmh 30.01 in1016.3 mb 0.00 in0.0 mm 0.00 in/hr0.0 mm/hr 0.00 in0.0 mm
08:00 AM 31.6°F-0.2°C 21.6°F-5.8°C 66% 0.3 mph SE0.5 kmh SE 3.1 mph5.0 kmh 30.02 in1016.6 mb 0.00 in0.0 mm 0.00 in/hr0.0 mm/hr 0.00 in0.0 mm
08:15 AM 32.0°F0.0°C 21.2°F-6.0°C 64% 0.9 mph NE1.4 kmh NE 4.5 mph7.2 kmh 30.02 in1016.6 mb 0.00 in0.0 mm 0.00 in/hr0.0 mm/hr 0.00 in0.0 mm
08:30 AM 32.2°F0.1°C 20.3°F-6.5°C 61% 4.2 mph N6.8 kmh N 9.8 mph15.8 kmh 30.03 in1016.9 mb 0.00 in0.0 mm 0.00 in/hr0.0 mm/hr 0.00 in0.0 mm
08:45 AM 32.5°F0.3°C 20.6°F-6.3°C 61% 2.1 mph NE3.4 kmh NE 7.6 mph12.2 kmh 30.03 in1016.9 mb 0.00 in0.0 mm 0.00 in/hr0.0 mm/hr 0.00 in0.0 mm
09:00 AM 32.5°F0.3°C 20.2°F-6.6°C 60% 3.8 mph N6.1 kmh N 9.8 mph15.8 kmh 30.03 in1016.9 mb 0.00 in0.0 mm 0.00 in/hr0.0 mm/hr 0.00 in0.0 mm
09:15 AM 33.3°F0.7°C 20.5°F-6.4°C 59% 4.0 mph NE6.4 kmh NE 9.2 mph14.8 kmh 30.03 in1016.9 mb 0.00 in0.0 mm 0.00 in/hr0.0 mm/hr 0.00 in0.0 mm
09:30 AM 33.3°F0.7°C 20.1°F-6.6°C 58% 2.9 mph NW4.7 kmh NW 6.9 mph11.1 kmh 30.03 in1016.9 mb 0.00 in0.0 mm 0.00 in/hr0.0 mm/hr 0.00 in0.0 mm
09:45 AM 33.6°F0.9°C 19.6°F-6.9°C 56% 3.4 mph E5.5 kmh E 6.9 mph11.1 kmh 30.04 in1017.3 mb 0.00 in0.0 mm 0.00 in/hr0.0 mm/hr 0.00 in0.0 mm
10:00 AM 34.3°F1.3°C 19.4°F-7.0°C 54% 3.3 mph NNW5.3 kmh NNW 8.3 mph13.4 kmh 30.04 in1017.3 mb 0.00 in0.0 mm 0.00 in/hr0.0 mm/hr 0.00 in0.0 mm
10:15 AM 35.6°F2.0°C 18.8°F-7.3°C 50% 2.2 mph NE3.5 kmh NE 6.0 mph9.7 kmh 30.04 in1017.3 mb 0.00 in0.0 mm 0.00 in/hr0.0 mm/hr 0.00 in0.0 mm
10:30 AM 36.3°F2.4°C 19.5°F-6.9°C 50% 3.1 mph NE5.0 kmh NE 7.6 mph12.2 kmh 30.04 in1017.3 mb 0.00 in0.0 mm 0.00 in/hr0.0 mm/hr 0.00 in0.0 mm
10:45 AM 36.0°F2.2°C 18.7°F-7.4°C 49% 3.5 mph N5.6 kmh N 11.4 mph18.3 kmh 30.04 in1017.3 mb 0.00 in0.0 mm 0.00 in/hr0.0 mm/hr 0.00 in0.0 mm
11:00 AM 35.6°F2.0°C 18.4°F-7.6°C 49% 1.8 mph NNW2.9 kmh NNW 6.0 mph9.7 kmh 30.04 in1017.3 mb 0.00 in0.0 mm 0.00 in/hr0.0 mm/hr 0.00 in0.0 mm
11:15 AM 36.5°F2.5°C 19.2°F-7.1°C 49% 3.3 mph ENE5.3 kmh ENE 8.3 mph13.4 kmh 30.04 in1017.3 mb 0.00 in0.0 mm 0.00 in/hr0.0 mm/hr 0.00 in0.0 mm
11:30 AM 35.4°F1.9°C 18.2°F-7.7°C 49% 2.9 mph NNE4.7 kmh NNE 9.2 mph14.8 kmh 30.03 in1016.9 mb 0.00 in0.0 mm 0.00 in/hr0.0 mm/hr 0.00 in0.0 mm
11:45 AM 36.3°F2.4°C 19.0°F-7.2°C 49% 3.0 mph ENE4.8 kmh ENE 9.8 mph15.8 kmh 30.03 in1016.9 mb 0.00 in0.0 mm 0.00 in/hr0.0 mm/hr 0.00 in0.0 mm
12:00 PM 36.3°F2.4°C 19.0°F-7.2°C 49% 3.6 mph E5.8 kmh E 9.2 mph14.8 kmh 30.02 in1016.6 mb 0.00 in0.0 mm 0.00 in/hr0.0 mm/hr 0.00 in0.0 mm
12:15 PM 37.6°F3.1°C 21.6°F-5.8°C 52% 2.8 mph ENE4.5 kmh ENE 7.6 mph12.2 kmh 30.00 in1015.9 mb 0.00 in0.0 mm 0.00 in/hr0.0 mm/hr 0.00 in0.0 mm
12:30 PM 37.0°F2.8°C 18.7°F-7.4°C 47% 3.8 mph NE6.1 kmh NE 11.4 mph18.3 kmh 30.00 in1015.9 mb 0.00 in0.0 mm 0.00 in/hr0.0 mm/hr 0.00 in0.0 mm
12:45 PM 37.8°F3.2°C 20.3°F-6.5°C 49% 2.9 mph NW4.7 kmh NW 8.3 mph13.4 kmh 29.99 in1015.6 mb 0.00 in0.0 mm 0.00 in/hr0.0 mm/hr 0.00 in0.0 mm
01:00 PM 38.5°F3.6°C 21.5°F-5.8°C 50% 3.5 mph NE5.6 kmh NE 7.6 mph12.2 kmh 29.98 in1015.2 mb 0.01 in0.3 mm 0.01 in/hr0.3 mm/hr 0.01 in0.3 mm
01:15 PM 38.8°F3.8°C 21.8°F-5.7°C 50% 2.6 mph NNE4.2 kmh NNE 9.8 mph15.8 kmh 29.97 in1014.9 mb 0.01 in0.3 mm 0.00 in/hr0.0 mm/hr 0.01 in0.3 mm
01:30 PM 39.2°F4.0°C 20.2°F-6.6°C 46% 2.9 mph NNE4.7 kmh NNE 9.2 mph14.8 kmh 29.96 in1014.6 mb 0.01 in0.3 mm 0.00 in/hr0.0 mm/hr 0.01 in0.3 mm
01:45 PM 40.1°F4.5°C 21.0°F-6.1°C 46% 2.9 mph NE4.7 kmh NE 7.6 mph12.2 kmh 29.95 in1014.2 mb 0.01 in0.3 mm 0.00 in/hr0.0 mm/hr 0.01 in0.3 mm
02:00 PM 39.2°F4.0°C 20.2°F-6.6°C 46% 3.4 mph N5.5 kmh N 6.9 mph11.1 kmh 29.95 in1014.2 mb 0.00 in0.0 mm 0.00 in/hr0.0 mm/hr 0.01 in0.3 mm
02:15 PM 39.0°F3.9°C 20.5°F-6.4°C 47% 2.5 mph WNW4.0 kmh WNW 5.4 mph8.7 kmh 29.95 in1014.2 mb 0.00 in0.0 mm 0.00 in/hr0.0 mm/hr 0.01 in0.3 mm
02:30 PM 39.0°F3.9°C 19.5°F-6.9°C 45% 3.5 mph N5.6 kmh N 7.6 mph12.2 kmh 29.95 in1014.2 mb 0.00 in0.0 mm 0.00 in/hr0.0 mm/hr 0.01 in0.3 mm
02:45 PM 38.8°F3.8°C 19.9°F-6.7°C 46% 1.9 mph N3.1 kmh N 6.0 mph9.7 kmh 29.94 in1013.9 mb 0.00 in0.0 mm 0.00 in/hr0.0 mm/hr 0.01 in0.3 mm
03:00 PM 39.2°F4.0°C 19.7°F-6.8°C 45% 2.4 mph NNE3.9 kmh NNE 8.3 mph13.4 kmh 29.94 in1013.9 mb 0.00 in0.0 mm 0.00 in/hr0.0 mm/hr 0.01 in0.3 mm
03:15 PM 39.0°F3.9°C 20.5°F-6.4°C 47% 1.8 mph NNE2.9 kmh NNE 4.5 mph7.2 kmh 29.93 in1013.5 mb 0.00 in0.0 mm 0.00 in/hr0.0 mm/hr 0.01 in0.3 mm
03:30 PM 39.4°F4.1°C 19.3°F-7.1°C 44% 2.0 mph NNW3.2 kmh NNW 6.0 mph9.7 kmh 29.92 in1013.2 mb 0.00 in0.0 mm 0.00 in/hr0.0 mm/hr 0.01 in0.3 mm
03:45 PM 38.7°F3.7°C 19.2°F-7.1°C 45% 3.0 mph NE4.8 kmh NE 8.3 mph13.4 kmh 29.92 in1013.2 mb 0.00 in0.0 mm 0.00 in/hr0.0 mm/hr 0.01 in0.3 mm
04:00 PM 38.3°F3.5°C 19.4°F-7.0°C 46% 1.9 mph NE3.1 kmh NE 6.9 mph11.1 kmh 29.91 in1012.9 mb 0.00 in0.0 mm 0.00 in/hr0.0 mm/hr 0.01 in0.3 mm
04:15 PM 37.9°F3.3°C 19.0°F-7.2°C 46% 2.2 mph NE3.5 kmh NE 7.6 mph12.2 kmh 29.91 in1012.9 mb 0.00 in0.0 mm 0.00 in/hr0.0 mm/hr 0.01 in0.3 mm
04:30 PM 37.2°F2.9°C 16.8°F-8.4°C 43% 3.3 mph N5.3 kmh N 10.7 mph17.2 kmh 29.91 in1012.9 mb 0.00 in0.0 mm 0.00 in/hr0.0 mm/hr 0.01 in0.3 mm
04:45 PM 36.9°F2.7°C 16.5°F-8.6°C 43% 3.3 mph NNE5.3 kmh NNE 9.2 mph14.8 kmh 29.91 in1012.9 mb 0.00 in0.0 mm 0.00 in/hr0.0 mm/hr 0.01 in0.3 mm
05:00 PM 36.3°F2.4°C 15.5°F-9.2°C 42% 1.8 mph ENE2.9 kmh ENE 6.0 mph9.7 kmh 29.92 in1013.2 mb 0.00 in0.0 mm 0.00 in/hr0.0 mm/hr 0.01 in0.3 mm
05:15 PM 36.0°F2.2°C 15.1°F-9.4°C 42% 1.8 mph NE2.9 kmh NE 6.9 mph11.1 kmh 29.92 in1013.2 mb 0.00 in0.0 mm 0.00 in/hr0.0 mm/hr 0.01 in0.3 mm
05:30 PM 35.4°F1.9°C 15.7°F-9.1°C 44% 0.7 mph NNE1.1 kmh NNE 7.6 mph12.2 kmh 29.93 in1013.5 mb 0.00 in0.0 mm 0.00 in/hr0.0 mm/hr 0.01 in0.3 mm
05:45 PM 34.7°F1.5°C 16.6°F-8.6°C 47% 0.9 mph NE1.4 kmh NE 5.4 mph8.7 kmh 29.93 in1013.5 mb 0.00 in0.0 mm 0.00 in/hr0.0 mm/hr 0.01 in0.3 mm
06:00 PM 34.0°F1.1°C 16.9°F-8.4°C 49% 0.2 mph NNE0.3 kmh NNE 3.1 mph5.0 kmh 29.93 in1013.5 mb 0.00 in0.0 mm 0.00 in/hr0.0 mm/hr 0.01 in0.3 mm
06:15 PM 33.3°F0.7°C 17.1°F-8.3°C 51% 0.6 mph NNE1.0 kmh NNE 3.8 mph6.1 kmh 29.93 in1013.5 mb 0.00 in0.0 mm 0.00 in/hr0.0 mm/hr 0.01 in0.3 mm
06:30 PM 33.1°F0.6°C 17.4°F-8.1°C 52% 1.1 mph N1.8 kmh N 3.8 mph6.1 kmh 29.94 in1013.9 mb 0.00 in0.0 mm 0.00 in/hr0.0 mm/hr 0.01 in0.3 mm
06:45 PM 33.1°F0.6°C 17.4°F-8.1°C 52% 2.4 mph NNW3.9 kmh NNW 7.6 mph12.2 kmh 29.93 in1013.5 mb 0.00 in0.0 mm 0.00 in/hr0.0 mm/hr 0.01 in0.3 mm
07:00 PM 32.9°F0.5°C 17.2°F-8.2°C 52% 2.6 mph N4.2 kmh N 6.9 mph11.1 kmh 29.93 in1013.5 mb 0.00 in0.0 mm 0.00 in/hr0.0 mm/hr 0.01 in0.3 mm
07:15 PM 32.5°F0.3°C 16.9°F-8.4°C 52% 3.6 mph NNW5.8 kmh NNW 9.2 mph14.8 kmh 29.93 in1013.5 mb 0.00 in0.0 mm 0.00 in/hr0.0 mm/hr 0.01 in0.3 mm
07:30 PM 32.2°F0.1°C 16.6°F-8.6°C 52% 2.4 mph N3.9 kmh N 10.7 mph17.2 kmh 29.93 in1013.5 mb 0.00 in0.0 mm 0.00 in/hr0.0 mm/hr 0.01 in0.3 mm
07:45 PM 31.8°F-0.1°C 17.1°F-8.3°C 54% 3.1 mph N5.0 kmh N 13.0 mph20.9 kmh 29.92 in1013.2 mb 0.00 in0.0 mm 0.00 in/hr0.0 mm/hr 0.01 in0.3 mm
08:00 PM 31.5°F-0.3°C 16.8°F-8.4°C 54% 3.2 mph NNW5.1 kmh NNW 8.3 mph13.4 kmh 29.92 in1013.2 mb 0.00 in0.0 mm 0.00 in/hr0.0 mm/hr 0.01 in0.3 mm
08:15 PM 31.3°F-0.4°C 16.6°F-8.6°C 54% 1.7 mph NW2.7 kmh NW 10.7 mph17.2 kmh 29.92 in1013.2 mb 0.00 in0.0 mm 0.00 in/hr0.0 mm/hr 0.01 in0.3 mm
08:30 PM 30.9°F-0.6°C 16.3°F-8.7°C 54% 1.9 mph NE3.1 kmh NE 6.0 mph9.7 kmh 29.92 in1013.2 mb 0.00 in0.0 mm 0.00 in/hr0.0 mm/hr 0.01 in0.3 mm
08:45 PM 30.6°F-0.8°C 16.3°F-8.7°C 55% 1.8 mph N2.9 kmh N 5.4 mph8.7 kmh 29.92 in1013.2 mb 0.00 in0.0 mm 0.00 in/hr0.0 mm/hr 0.01 in0.3 mm
09:00 PM 30.4°F-0.9°C 15.8°F-9.0°C 54% 2.2 mph NE3.5 kmh NE 9.8 mph15.8 kmh 29.93 in1013.5 mb 0.00 in0.0 mm 0.00 in/hr0.0 mm/hr 0.01 in0.3 mm
09:15 PM 30.2°F-1.0°C 15.6°F-9.1°C 54% 3.6 mph SE5.8 kmh SE 10.7 mph17.2 kmh 29.94 in1013.9 mb 0.00 in0.0 mm 0.00 in/hr0.0 mm/hr 0.01 in0.3 mm
09:30 PM 30.0°F-1.1°C 15.8°F-9.0°C 55% 1.9 mph N3.1 kmh N 6.0 mph9.7 kmh 29.95 in1014.2 mb 0.00 in0.0 mm 0.00 in/hr0.0 mm/hr 0.01 in0.3 mm
09:45 PM 29.7°F-1.3°C 15.9°F-8.9°C 56% 1.7 mph SE2.7 kmh SE 6.0 mph9.7 kmh 29.96 in1014.6 mb 0.00 in0.0 mm 0.00 in/hr0.0 mm/hr 0.01 in0.3 mm
10:00 PM 29.5°F-1.4°C 15.8°F-9.0°C 56% 1.7 mph E2.7 kmh E 7.6 mph12.2 kmh 29.96 in1014.6 mb 0.00 in0.0 mm 0.00 in/hr0.0 mm/hr 0.01 in0.3 mm
10:15 PM 29.5°F-1.4°C 15.8°F-9.0°C 56% 1.6 mph E2.6 kmh E 5.4 mph8.7 kmh 29.97 in1014.9 mb 0.00 in0.0 mm 0.00 in/hr0.0 mm/hr 0.01 in0.3 mm
10:30 PM 29.1°F-1.6°C 15.4°F-9.2°C 56% 1.4 mph NNE2.3 kmh NNE 6.0 mph9.7 kmh 29.96 in1014.6 mb 0.00 in0.0 mm 0.00 in/hr0.0 mm/hr 0.01 in0.3 mm
10:45 PM 29.1°F-1.6°C 15.0°F-9.4°C 55% 3.0 mph ENE4.8 kmh ENE 9.2 mph14.8 kmh 29.96 in1014.6 mb 0.00 in0.0 mm 0.00 in/hr0.0 mm/hr 0.01 in0.3 mm
11:00 PM 28.9°F-1.7°C 14.8°F-9.6°C 55% 2.7 mph ESE4.3 kmh ESE 12.1 mph19.5 kmh 29.95 in1014.2 mb 0.00 in0.0 mm 0.00 in/hr0.0 mm/hr 0.01 in0.3 mm
11:15 PM 28.8°F-1.8°C 15.1°F-9.4°C 56% 2.5 mph E4.0 kmh E 8.3 mph13.4 kmh 29.96 in1014.6 mb 0.00 in0.0 mm 0.00 in/hr0.0 mm/hr 0.01 in0.3 mm
11:30 PM 28.8°F-1.8°C 15.5°F-9.2°C 57% 1.1 mph E1.8 kmh E 4.5 mph7.2 kmh 29.95 in1014.2 mb 0.00 in0.0 mm 0.00 in/hr0.0 mm/hr 0.01 in0.3 mm
11:45 PM 28.6°F-1.9°C 15.3°F-9.3°C 57% 1.0 mph WSW1.6 kmh WSW 3.8 mph6.1 kmh 29.96 in1014.6 mb 0.00 in0.0 mm 0.00 in/hr0.0 mm/hr 0.01 in0.3 mm